Time;durP1;ratioP1;P1;durP2;ratioP2;P2;SDS_P1;SDS_P2;PMS_P1;PMS_P2;Temp;Humidity;BMP_temperature;BMP_pressure;BME280_temperature;BME280_humidity;BME280_pressure;Samples;Min_cycle;Max_cycle;Signal;HPM_P1;HPM_P2
2022/04/19 00:00:08;;;;;;;8.93;3.67;;;;;;;4.57;58.49;100101.59;4994596;28;20058;-84
2022/04/19 00:02:36;;;;;;;5.45;3.67;;;;;;;4.59;58.83;100112.00;5008831;28;20054;-83
2022/04/19 00:05:03;;;;;;;7.47;3.92;;;;;;;4.55;59.35;100105.84;5007467;28;20054;-82
2022/04/19 00:07:30;;;;;;;7.47;3.78;;;;;;;4.53;59.46;100097.16;4998097;28;20058;-84
2022/04/19 00:09:57;;;;;;;7.00;3.67;;;;;;;4.61;59.27;100103.44;5015799;28;20108;-81
2022/04/19 00:12:24;;;;;;;8.63;3.60;;;;;;;4.37;58.83;100053.53;5015990;28;20077;-83
2022/04/19 00:14:51;;;;;;;5.65;3.35;;;;;;;4.58;59.40;100087.84;4985379;28;20077;-81
2022/04/19 00:17:19;;;;;;;6.82;3.63;;;;;;;4.56;59.55;100086.91;4995990;28;20479;-81
2022/04/19 00:19:46;;;;;;;6.10;3.35;;;;;;;4.34;59.65;100058.59;4996618;28;20057;-81
2022/04/19 00:22:13;;;;;;;6.90;3.67;;;;;;;4.55;59.54;100098.06;5021170;28;20061;-80
2022/04/19 00:24:40;;;;;;;7.93;3.30;;;;;;;4.53;60.14;100094.56;5015251;28;20098;-83
2022/04/19 00:27:07;;;;;;;6.95;3.50;;;;;;;4.58;60.47;100099.88;5008139;28;20065;-85
2022/04/19 00:29:34;;;;;;;6.20;3.97;;;;;;;4.30;60.01;100045.59;4979752;28;20069;-83
2022/04/19 00:32:02;;;;;;;5.70;3.60;;;;;;;4.52;60.20;100082.47;4978491;28;20109;-85
2022/04/19 00:34:29;;;;;;;4.97;2.95;;;;;;;4.56;60.72;100093.78;4996495;28;20109;-84
2022/04/19 00:36:56;;;;;;;4.68;2.97;;;;;;;4.55;61.14;100108.44;4999905;28;20074;-83
2022/04/19 00:39:23;;;;;;;5.43;3.40;;;;;;;4.57;60.58;100114.53;5000859;28;20050;-83
2022/04/19 00:41:50;;;;;;;6.88;3.53;;;;;;;4.57;60.66;100109.34;4998666;28;20189;-81
2022/04/19 00:44:17;;;;;;;7.95;3.55;;;;;;;4.37;60.73;100053.53;4997678;28;20073;-83
2022/04/19 00:46:44;;;;;;;5.22;3.40;;;;;;;4.63;60.82;100100.91;4980293;28;20535;-81
2022/04/19 00:49:11;;;;;;;5.60;3.50;;;;;;;4.58;61.56;100095.59;4978544;28;20515;-86
2022/04/19 00:51:39;;;;;;;4.95;3.28;;;;;;;4.66;61.47;100088.06;4980229;28;20062;-85
2022/04/19 00:54:07;;;;;;;5.47;3.05;;;;;;;4.61;61.17;100079.28;4979245;28;20511;-85
2022/04/19 00:56:34;;;;;;;4.78;3.45;;;;;;;4.65;61.73;100094.94;4995695;28;20050;-82
2022/04/19 00:59:02;;;;;;;5.90;3.40;;;;;;;4.64;61.76;100082.81;4978556;28;20074;-82
2022/04/19 01:01:31;;;;;;;5.93;3.38;;;;;;;4.55;62.30;100072.19;4978676;28;20049;-86
2022/04/19 01:03:58;;;;;;;4.60;3.28;;;;;;;4.59;62.19;100068.00;4979232;28;20093;-85
2022/04/19 01:06:26;;;;;;;6.22;3.58;;;;;;;4.67;62.30;100076.91;4978471;28;20050;-84
2022/04/19 01:08:54;;;;;;;5.13;3.55;;;;;;;4.65;62.18;100079.44;4978055;28;20058;-84
2022/04/19 01:14:12;;;;;;;6.68;3.20;;;;;;;4.75;62.24;100098.69;4993114;28;20122;-83
2022/04/19 01:16:42;;;;;;;4.95;3.30;;;;;;;4.70;62.71;100087.31;4977785;28;20103;-80
2022/04/19 01:19:15;;;;;;;5.88;3.85;;;;;;;4.70;62.52;100093.38;4961975;28;20081;-81
2022/04/19 01:21:44;;;;;;;7.63;3.35;;;;;;;4.70;63.15;100076.97;4978138;28;20062;-83
2022/04/19 01:24:15;;;;;;;4.38;3.30;;;;;;;4.70;62.71;100076.97;4977892;28;20515;-82
2022/04/19 01:26:43;;;;;;;6.93;3.92;;;;;;;4.44;62.85;100027.91;4977539;28;20058;-82
2022/04/19 01:29:11;;;;;;;7.57;3.47;;;;;;;4.55;63.66;100071.34;4961081;28;20157;-82
2022/04/19 01:31:41;;;;;;;6.40;4.05;;;;;;;4.19;63.57;99995.22;4977543;28;20078;-82
2022/04/19 01:34:09;;;;;;;7.05;4.13;;;;;;;4.58;63.64;100074.91;4977108;28;20065;-81
2022/04/19 01:36:38;;;;;;;6.47;3.70;;;;;;;4.48;64.04;100065.09;4977327;28;20064;-82
2022/04/19 01:39:07;;;;;;;5.82;3.33;;;;;;;4.41;63.99;100060.53;4977633;28;20050;-81
2022/04/19 01:41:35;;;;;;;6.55;3.65;;;;;;;4.13;64.37;99999.31;4978286;28;20054;-82
2022/04/19 01:44:06;;;;;;;6.32;3.63;;;;;;;4.35;64.43;100039.69;4993603;28;20054;-82
2022/04/19 01:46:35;;;;;;;4.82;3.65;;;;;;;4.47;64.38;100073.66;4994244;28;20105;-83
2022/04/19 01:49:03;;;;;;;5.90;3.65;;;;;;;4.47;64.77;100094.38;4994056;28;20058;-84
2022/04/19 01:51:31;;;;;;;8.73;4.15;;;;;;;4.35;64.58;100062.97;4960918;28;20050;-83
2022/04/19 01:53:59;;;;;;;6.00;3.65;;;;;;;4.24;64.68;100058.31;4994178;28;20058;-82
2022/04/19 01:56:26;;;;;;;5.50;3.83;;;;;;;4.35;65.05;100068.13;4994466;28;20090;-84
2022/04/19 01:58:54;;;;;;;5.90;3.45;;;;;;;4.40;64.98;100084.66;5000273;28;20057;-84
2022/04/19 02:01:41;;;;;;;7.28;3.88;;;;;;;4.38;65.05;100086.31;5004916;28;20096;-84
2022/04/19 02:04:10;;;;;;;5.53;3.35;;;;;;;4.33;64.75;100078.41;4979134;28;20080;-83
2022/04/19 02:06:39;;;;;;;7.60;3.80;;;;;;;4.20;64.75;100048.69;4976674;28;20058;-82
2022/04/19 02:09:06;;;;;;;7.35;4.25;;;;;;;4.39;65.28;100096.72;4976652;28;20051;-83
2022/04/19 02:11:33;;;;;;;6.47;4.18;;;;;;;4.22;65.59;100072.03;4994840;28;20054;-82
2022/04/19 02:14:30;;;;;;;6.55;3.92;;;;;;;4.30;65.47;100088.66;4992612;28;20053;-80
2022/04/19 02:16:57;;;;;;;7.20;4.40;;;;;;;4.28;65.37;100070.53;4982790;28;20054;-81
2022/04/19 02:19:24;;;;;;;7.47;4.25;;;;;;;4.38;65.36;100088.91;4976887;28;20058;-81
2022/04/19 02:21:51;;;;;;;8.00;3.90;;;;;;;4.27;65.50;100063.56;4959948;28;20056;-83
2022/04/19 02:24:18;;;;;;;8.25;4.15;;;;;;;4.47;65.04;100094.38;5007949;28;20054;-82
2022/04/19 02:30:28;;;;;;;7.78;3.97;;;;;;;4.30;65.64;100096.41;4974880;28;20427;-83
2022/04/19 02:33:04;;;;;;;6.97;4.72;;;;;;;4.41;65.74;100094.16;4975952;28;20428;-83
2022/04/19 02:35:35;;;;;;;12.35;5.00;;;;;;;4.46;65.09;100093.50;4976195;28;20054;-84
2022/04/19 02:38:04;;;;;;;5.15;3.58;;;;;;;4.30;65.73;100076.63;4976161;28;20109;-83
2022/04/19 02:40:38;;;;;;;5.78;3.75;;;;;;;4.47;65.16;100099.53;4976185;28;20306;-84
2022/04/19 02:43:06;;;;;;;8.18;3.88;;;;;;;4.27;65.20;100073.91;4976270;28;20084;-82
2022/04/19 02:45:33;;;;;;;8.00;3.55;;;;;;;4.46;65.31;100102.97;4976080;28;20056;-82
2022/04/19 02:48:06;;;;;;;6.68;3.40;;;;;;;4.24;64.79;100060.91;4976894;28;20078;-83
2022/04/19 02:50:44;;;;;;;7.03;3.83;;;;;;;4.58;64.79;100107.63;4961612;28;20088;-83
2022/04/19 02:53:12;;;;;;;7.90;4.10;;;;;;;4.41;64.50;100052.78;4993303;28;20096;-84
2022/04/19 02:55:40;;;;;;;5.75;4.07;;;;;;;4.69;64.81;100114.91;4993355;28;20050;-82
2022/04/19 02:58:08;;;;;;;8.23;4.00;;;;;;;4.60;64.95;100080.09;4975941;28;20050;-84
2022/04/19 03:00:37;;;;;;;6.03;3.58;;;;;;;4.44;64.49;100051.19;4976388;28;20061;-86
2022/04/19 03:03:05;;;;;;;8.70;3.80;;;;;;;4.71;64.94;100102.91;4976936;28;20055;-84
2022/04/19 03:05:37;;;;;;;7.28;4.22;;;;;;;4.80;64.69;100114.38;4988115;28;20050;-80
2022/04/19 03:08:05;;;;;;;5.82;3.70;;;;;;;4.85;64.69;100110.22;5005056;28;20054;-82
2022/04/19 03:10:32;;;;;;;8.23;4.57;;;;;;;4.59;64.29;100062.84;4988932;28;20058;-83
2022/04/19 03:13:01;;;;;;;8.15;3.85;;;;;;;4.77;64.22;100096.16;4961661;28;20054;-80
2022/04/19 03:15:34;;;;;;;9.55;3.63;;;;;;;5.01;63.51;100122.78;4974829;28;20047;-83
2022/04/19 03:18:02;;;;;;;10.07;4.13;;;;;;;4.91;64.20;100093.16;4958223;28;20487;-82
2022/04/19 03:20:33;;;;;;;7.90;3.63;;;;;;;4.98;63.68;100098.50;4974717;28;20066;-84
2022/04/19 03:28:48;;;;;;;9.40;4.10;;;;;;;5.44;62.90;100108.50;4973948;28;20106;-83
2022/04/19 03:31:16;;;;;;;4.45;3.35;;;;;;;5.20;62.94;100076.69;4975620;28;20097;-84
2022/04/19 03:33:48;;;;;;;6.57;3.70;;;;;;;5.29;62.58;100101.16;4968457;28;20057;-83
2022/04/19 03:36:20;;;;;;;4.70;3.30;;;;;;;5.26;62.79;100084.66;4983860;28;20046;-82
2022/04/19 03:38:48;;;;;;;;;;;;;;;5.33;62.46;100118.56;4974986;28;20595;-83
2022/04/19 03:41:16;;;;;;;5.10;3.17;;;;;;;5.25;62.33;100095.88;4961906;28;19933;-81
2022/04/19 03:43:49;;;;;;;5.30;3.50;;;;;;;5.36;62.97;100106.53;4978531;28;20101;-86
2022/04/19 03:46:16;;;;;;;8.10;3.35;;;;;;;5.50;62.46;100113.81;4977941;28;20475;-86
2022/04/19 03:48:43;;;;;;;7.25;3.78;;;;;;;5.65;62.52;100115.09;4979272;28;20053;-83
2022/04/19 03:51:11;;;;;;;6.80;3.92;;;;;;;5.62;62.33;100131.44;4978326;28;20557;-85
2022/04/19 03:53:43;;;;;;;7.72;3.58;;;;;;;5.36;62.89;100072.84;4978266;28;20503;-82
2022/04/19 03:56:13;;;;;;;5.70;3.90;;;;;;;5.47;62.70;100094.75;4976128;28;20042;-83
2022/04/19 03:58:42;;;;;;;6.82;3.47;;;;;;;5.23;62.50;100069.03;4980331;28;20097;-83
2022/04/19 04:01:12;;;;;;;6.40;3.50;;;;;;;5.43;63.24;100117.09;4978551;28;20050;-83
2022/04/19 04:03:41;;;;;;;6.43;3.67;;;;;;;5.25;62.86;100088.97;4979275;28;20105;-84
2022/04/19 04:06:08;;;;;;;6.55;3.47;;;;;;;5.34;63.21;100115.13;5010636;28;20053;-80
2022/04/19 04:08:35;;;;;;;8.05;3.80;;;;;;;5.12;63.36;100092.91;5001480;28;20137;-84
2022/04/19 04:11:04;;;;;;;4.93;3.50;;;;;;;5.39;63.19;100125.59;4997735;28;20058;-85
2022/04/19 04:13:36;;;;;;;5.80;3.53;;;;;;;5.27;63.58;100109.69;4980669;28;20054;-84
2022/04/19 04:16:05;;;;;;;4.72;3.17;;;;;;;5.37;63.25;100113.44;4979943;28;20435;-84
2022/04/19 04:18:32;;;;;;;6.85;3.70;;;;;;;5.55;63.05;100116.56;4979161;28;20527;-81
2022/04/19 04:21:00;;;;;;;5.68;3.50;;;;;;;5.66;62.78;100132.41;4978945;28;20515;-81
2022/04/19 04:23:27;;;;;;;4.57;3.10;;;;;;;5.77;62.84;100117.16;4980271;28;20070;-84
2022/04/19 04:26:00;;;;;;;4.65;3.28;;;;;;;5.59;62.36;100102.81;4979358;28;20461;-80
2022/04/19 04:28:29;;;;;;;7.90;3.58;;;;;;;5.75;62.91;100130.06;4979260;28;20542;-80
2022/04/19 04:30:56;;;;;;;3.97;3.25;;;;;;;5.56;62.69;100084.63;4962568;28;20117;-79
2022/04/19 04:33:23;;;;;;;4.03;3.10;;;;;;;5.84;62.42;100130.31;4982642;28;20579;-80
2022/04/19 04:35:58;;;;;;;4.18;3.00;;;;;;;5.97;62.09;100144.50;4975343;28;20520;-78
2022/04/19 04:38:25;;;;;;;6.18;3.10;;;;;;;5.86;62.67;100125.16;4977684;28;20448;-80
2022/04/19 04:40:53;;;;;;;5.43;3.05;;;;;;;5.89;62.54;100138.19;4945824;28;20124;-79
2022/04/19 04:43:20;;;;;;;7.00;3.70;;;;;;;5.87;62.54;100113.94;4978309;28;20042;-78
2022/04/19 04:49:35;;;;;;;7.38;3.90;;;;;;;5.95;62.07;100122.84;4977142;28;20059;-80
2022/04/19 04:51:21;;;;;;;6.70;3.55;;;;;;;6.10;62.58;100132.72;4974161;28;20055;-82
2022/04/19 04:53:48;;;;;;;5.47;2.97;;;;;;;5.96;62.56;100124.59;4942862;28;20141;-80
2022/04/19 04:56:23;;;;;;;5.35;2.85;;;;;;;6.09;62.83;100133.59;4958440;28;20128;-81
2022/04/19 04:58:51;;;;;;;4.00;3.00;;;;;;;5.99;62.71;100109.13;4958172;28;20053;-81
2022/04/19 05:01:18;;;;;;;4.18;3.05;;;;;;;6.04;62.87;100124.78;4942221;28;20051;-80
2022/04/19 05:03:46;;;;;;;5.20;2.70;;;;;;;6.12;62.86;100120.69;4958814;28;20082;-81
2022/04/19 05:06:14;;;;;;;5.25;3.25;;;;;;;6.26;62.44;100128.78;4942538;28;20082;-79
2022/04/19 05:08:42;;;;;;;5.47;2.80;;;;;;;6.25;62.64;100116.69;4974543;28;20500;-80
2022/04/19 05:11:09;;;;;;;3.65;2.88;;;;;;;6.12;62.84;100093.03;4958732;28;20058;-79
2022/04/19 05:13:38;;;;;;;5.68;2.95;;;;;;;6.33;62.78;100130.72;4958295;28;20508;-80
2022/04/19 05:16:06;;;;;;;6.35;3.50;;;;;;;6.39;62.75;100125.69;4975713;28;20092;-80
2022/04/19 05:18:33;;;;;;;3.85;3.00;;;;;;;6.43;62.76;100118.84;4958785;28;20058;-78
2022/04/19 05:21:01;;;;;;;4.93;3.20;;;;;;;6.23;63.10;100098.47;4958160;28;20149;-79
2022/04/19 05:23:28;;;;;;;5.40;3.13;;;;;;;6.40;63.02;100119.66;4963756;28;20109;-79
2022/04/19 05:25:56;;;;;;;6.70;3.22;;;;;;;6.26;63.51;100103.75;4958095;28;20051;-79
2022/04/19 05:28:23;;;;;;;3.90;2.65;;;;;;;6.39;63.59;100127.38;4958020;28;20046;-79
2022/04/19 05:30:54;;;;;;;5.82;2.95;;;;;;;6.55;63.24;100132.97;4958906;28;20427;-80
2022/04/19 05:33:22;;;;;;;5.75;3.20;;;;;;;6.61;62.88;100121.00;4974158;28;20051;-79
2022/04/19 05:35:49;;;;;;;4.18;2.67;;;;;;;6.63;62.81;100117.59;4958401;28;20086;-79
2022/04/19 05:38:16;;;;;;;3.85;2.80;;;;;;;6.65;62.87;100121.13;4946843;28;20153;-79
2022/04/19 05:40:43;;;;;;;4.40;2.97;;;;;;;6.63;63.09;100109.81;4983226;28;20050;-79
2022/04/19 05:43:10;;;;;;;5.75;3.30;;;;;;;6.49;62.92;100073.16;4958236;28;20137;-79
2022/04/19 05:45:39;;;;;;;4.57;2.95;;;;;;;6.84;62.42;100121.53;4974063;28;20058;-80
2022/04/19 05:48:07;;;;;;;4.07;2.72;;;;;;;6.96;62.68;100133.06;4970011;28;20050;-81
2022/04/19 05:50:34;;;;;;;6.63;3.00;;;;;;;7.22;62.26;100137.09;4981946;28;20122;-78
2022/04/19 05:53:03;;;;;;;4.53;3.17;;;;;;;7.08;61.48;100077.91;4982249;28;20086;-80
2022/04/19 05:55:30;;;;;;;4.47;2.65;;;;;;;7.49;61.13;100116.00;4981177;28;20037;-77
2022/04/19 05:57:58;;;;;;;4.13;3.05;;;;;;;7.70;60.93;100112.91;4998109;28;20034;-78
2022/04/19 06:00:26;;;;;;;5.32;3.00;;;;;;;7.62;60.67;100120.56;4997300;28;20086;-78
2022/04/19 06:05:45;;;;;;;3.60;2.67;;;;;;;7.68;60.94;100140.59;4982310;28;20055;-79
2022/04/19 06:08:14;;;;;;;3.47;2.80;;;;;;;7.32;61.60;100097.44;4965513;28;20050;-80
2022/04/19 06:10:42;;;;;;;4.97;2.85;;;;;;;7.49;62.07;100135.06;4964418;28;20055;-80
2022/04/19 06:13:09;;;;;;;5.03;3.03;;;;;;;7.59;61.89;100131.81;4965972;28;20062;-80
2022/04/19 06:15:37;;;;;;;4.18;2.78;;;;;;;7.63;62.03;100137.03;4973944;28;20432;-81
2022/04/19 06:18:06;;;;;;;5.47;2.97;;;;;;;7.67;61.77;100123.25;4957669;28;20051;-81
2022/04/19 06:20:41;;;;;;;4.15;2.60;;;;;;;7.84;61.27;100111.44;4957546;28;20170;-84
2022/04/19 06:23:10;;;;;;;6.03;2.72;;;;;;;7.94;61.16;100108.19;4957508;28;20089;-79
2022/04/19 06:25:38;;;;;;;4.57;2.67;;;;;;;8.24;60.81;100114.75;4957158;28;20406;-79
2022/04/19 06:28:06;;;;;;;2.85;2.35;;;;;;;8.40;60.19;100124.59;4956949;28;20105;-82
2022/04/19 06:30:58;;;;;;;3.42;2.08;;;;;;;8.43;60.07;100102.94;4973704;28;20050;-80
2022/04/19 06:33:26;;;;;;;5.15;2.40;;;;;;;8.56;60.37;100138.75;4956695;28;20050;-79
2022/04/19 06:35:53;;;;;;;3.65;2.90;;;;;;;8.53;60.30;100135.22;4956449;28;20063;-80
2022/04/19 06:38:20;;;;;;;7.25;2.92;;;;;;;8.34;60.57;100134.00;4956831;28;20054;-83
2022/04/19 06:40:48;;;;;;;3.75;2.38;;;;;;;7.92;61.25;100091.66;4940882;28;20487;-82
2022/04/19 06:43:15;;;;;;;3.83;2.20;;;;;;;7.95;61.77;100116.84;4972877;28;20145;-82
2022/04/19 06:45:54;;;;;;;10.10;2.70;;;;;;;7.92;61.74;100124.59;4940829;28;20059;-82
2022/04/19 06:48:26;;;;;;;3.67;2.70;;;;;;;8.17;61.63;100141.50;4957067;28;20050;-85
2022/04/19 06:50:53;;;;;;;2.50;2.20;;;;;;;8.23;60.98;100118.19;4957496;28;20125;-84
2022/04/19 06:53:42;;;;;;;3.38;2.22;;;;;;;8.30;61.69;100122.69;4957767;28;20095;-82
2022/04/19 06:56:27;;;;;;;5.57;2.47;;;;;;;8.34;61.53;100155.69;4957716;28;20061;-84
2022/04/19 06:58:56;;;;;;;5.03;2.60;;;;;;;8.25;61.49;100134.72;4976253;28;20435;-83
2022/04/19 07:01:24;;;;;;;4.65;2.63;;;;;;;8.18;61.50;100086.03;4975918;28;20141;-80
2022/04/19 07:04:11;;;;;;;4.15;2.63;;;;;;;8.54;61.11;100126.53;4993118;28;20703;-82
2022/04/19 07:06:59;;;;;;;2.92;2.30;;;;;;;8.49;60.79;100100.44;4963170;28;20050;-80
2022/04/19 07:09:26;;;;;;;6.60;2.53;;;;;;;8.64;60.68;100135.38;4977117;28;20128;-81
2022/04/19 07:11:56;;;;;;;4.45;3.20;;;;;;;8.36;60.97;100116.69;4960661;28;20451;-80
2022/04/19 07:14:30;;;;;;;7.25;2.67;;;;;;;8.17;61.69;100092.97;4964819;28;20050;-82
2022/04/19 07:16:58;;;;;;;3.70;2.35;;;;;;;8.17;62.37;100128.50;5002571;28;20145;-82
2022/04/19 07:26:37;;;;;;;5.07;3.40;;;;;;;7.75;62.99;100096.56;5005018;28;20081;-81
2022/04/19 07:28:03;;;;;;;5.05;2.92;;;;;;;7.92;63.01;100142.81;5012191;28;20494;-81
2022/04/19 07:30:38;;;;;;;7.90;3.00;;;;;;;7.97;63.12;100131.63;4991585;28;20064;-82
2022/04/19 07:33:05;;;;;;;5.53;3.40;;;;;;;8.12;62.64;100138.84;5017201;28;20089;-80
2022/04/19 07:35:36;;;;;;;6.78;3.25;;;;;;;8.17;63.08;100134.59;4999789;28;20148;-81
2022/04/19 07:38:03;;;;;;;5.35;3.20;;;;;;;8.24;62.79;100150.31;4982599;28;20096;-82
2022/04/19 07:40:41;;;;;;;6.05;3.30;;;;;;;7.98;63.65;100115.19;4998730;28;20524;-80
2022/04/19 07:43:09;;;;;;;4.18;2.95;;;;;;;8.13;63.31;100151.00;5016450;28;20145;-81
2022/04/19 07:45:36;;;;;;;6.10;2.70;;;;;;;7.77;63.80;100107.88;5000038;28;20049;-81
2022/04/19 07:48:24;;;;;;;5.90;2.85;;;;;;;7.87;64.24;100163.53;5007366;28;20085;-82
2022/04/19 07:51:13;;;;;;;4.45;2.85;;;;;;;7.76;64.39;100149.44;5020987;28;20112;-82
2022/04/19 07:53:41;;;;;;;5.25;2.78;;;;;;;7.95;64.09;100169.75;4998735;28;20061;-81
2022/04/19 07:56:10;;;;;;;6.30;2.67;;;;;;;7.72;64.62;100106.91;4998772;28;20053;-79
2022/04/19 07:58:37;;;;;;;4.82;3.03;;;;;;;7.96;64.32;100181.91;4998526;28;20104;-79
2022/04/19 08:01:05;;;;;;;26.48;12.75;;;;;;;8.00;64.09;100154.22;4962415;28;20051;-82
2022/04/19 08:03:33;;;;;;;7.47;3.38;;;;;;;8.03;64.17;100153.41;4976167;28;20062;-81
2022/04/19 08:08:46;;;;;;;8.55;3.53;;;;;;;8.21;63.57;100166.75;4976529;28;20051;-83
2022/04/19 08:11:13;;;;;;;6.20;4.07;;;;;;;8.23;64.14;100156.38;4981020;28;20050;-80
2022/04/19 08:13:42;;;;;;;5.97;3.33;;;;;;;8.20;63.96;100163.28;4999029;28;20522;-81
2022/04/19 08:16:09;;;;;;;3.47;3.08;;;;;;;7.99;64.48;100155.06;4982733;28;20089;-83
2022/04/19 08:18:38;;;;;;;3.05;2.30;;;;;;;7.87;64.69;100160.94;4998325;28;20534;-82
2022/04/19 08:21:04;;;;;;;3.45;2.58;;;;;;;7.91;64.71;100165.31;5015708;28;20054;-81
2022/04/19 08:23:35;;;;;;;5.15;3.67;;;;;;;7.96;65.01;100171.50;4983334;28;20070;-83
2022/04/19 08:26:10;;;;;;;5.07;3.30;;;;;;;7.57;64.90;100093.59;4978055;28;20046;-83
2022/04/19 08:28:39;;;;;;;6.40;3.08;;;;;;;8.10;64.49;100187.38;4980884;28;20154;-81
2022/04/19 08:31:06;;;;;;;6.07;3.50;;;;;;;8.16;64.53;100174.47;4977770;28;20146;-82
2022/04/19 08:33:34;;;;;;;4.88;2.83;;;;;;;8.15;64.52;100159.72;4975268;28;20055;-80
2022/04/19 08:36:03;;;;;;;4.07;2.50;;;;;;;8.09;64.49;100141.41;4976257;28;20535;-81
2022/04/19 08:38:30;;;;;;;6.90;3.83;;;;;;;8.18;65.00;100159.75;4958624;28;20471;-81
2022/04/19 08:40:58;;;;;;;5.95;3.15;;;;;;;8.35;64.23;100147.03;4959342;28;20058;-81
2022/04/19 08:43:27;;;;;;;6.30;2.95;;;;;;;8.40;63.83;100128.91;4959343;28;20047;-80
2022/04/19 08:45:54;;;;;;;5.72;3.10;;;;;;;8.59;63.67;100156.16;4975961;28;20067;-79
2022/04/19 08:48:25;;;;;;;4.15;2.65;;;;;;;8.44;63.56;100106.44;4976576;28;20055;-81
2022/04/19 08:50:54;;;;;;;4.15;2.55;;;;;;;8.51;63.42;100140.38;4976542;28;20057;-81
2022/04/19 08:58:55;;;;;;;3.47;2.30;;;;;;;8.78;62.69;100085.25;4976969;28;20050;-81
2022/04/19 09:01:22;;;;;;;4.32;2.90;;;;;;;9.21;61.71;100143.16;4975713;28;20058;-80
2022/04/19 09:03:54;;;;;;;4.80;2.58;;;;;;;9.53;61.03;100126.16;4979655;28;20397;-81
2022/04/19 09:06:49;;;;;;;5.72;2.88;;;;;;;9.84;60.59;100122.16;4958612;28;20643;-82
2022/04/19 09:09:16;;;;;;;2.92;2.47;;;;;;;9.94;59.84;100104.88;4975365;28;20101;-80
2022/04/19 09:11:43;;;;;;;6.10;2.13;;;;;;;10.03;59.71;100108.44;4958363;28;20063;-80
2022/04/19 09:14:10;;;;;;;2.88;2.60;;;;;;;10.25;58.79;100082.53;4962259;28;20053;-82
2022/04/19 09:16:38;;;;;;;5.43;2.78;;;;;;;10.71;57.44;100064.63;4987646;28;20054;-81
2022/04/19 09:19:09;;;;;;;5.10;2.65;;;;;;;10.75;56.58;100037.63;5014296;28;20145;-80
2022/04/19 09:21:40;;;;;;;4.50;2.42;;;;;;;11.24;56.45;100124.13;4996963;28;20125;-81
2022/04/19 09:24:18;;;;;;;5.50;2.65;;;;;;;11.32;55.95;100142.50;5014919;28;20057;-82
2022/04/19 09:26:46;;;;;;;3.25;2.75;;;;;;;11.16;56.09;100089.22;4996678;28;20596;-82
2022/04/19 09:29:23;;;;;;;5.43;2.45;;;;;;;11.14;56.42;100126.69;5014440;28;20590;-82
2022/04/19 09:32:01;;;;;;;7.03;2.95;;;;;;;11.03;56.40;100108.34;4996731;28;20101;-82
2022/04/19 14:13:28;;;;;;;5.00;2.28;;;;;;;12.54;52.52;100046.72;5677834;23;20103;-79
2022/04/19 14:15:55;;;;;;;4.90;2.38;;;;;;;12.53;52.31;100031.00;4935041;29;20115;-80
2022/04/19 14:18:28;;;;;;;2.60;2.22;;;;;;;12.55;52.47;100047.59;4929072;29;20052;-79
2022/04/19 14:20:55;;;;;;;3.63;2.50;;;;;;;12.53;52.70;100023.16;4926428;29;20056;-80
2022/04/19 14:23:23;;;;;;;2.95;2.33;;;;;;;12.34;52.83;100006.59;4924983;29;20048;-79
2022/04/19 14:26:20;;;;;;;1.90;1.73;;;;;;;12.46;52.76;100014.44;4923489;29;20536;-79
2022/04/19 14:34:29;;;;;;;3.42;2.30;;;;;;;12.45;53.15;100016.19;4916952;29;20506;-81
2022/04/19 14:36:56;;;;;;;4.05;2.80;;;;;;;12.53;53.14;100012.66;4916434;29;20481;-81
2022/04/19 14:39:23;;;;;;;3.80;2.50;;;;;;;12.61;52.85;100031.88;4916553;29;20192;-79
2022/04/19 14:41:50;;;;;;;3.83;2.65;;;;;;;12.49;52.93;100012.66;4916419;29;20060;-79
2022/04/19 14:44:17;;;;;;;5.03;2.50;;;;;;;12.56;53.46;100028.38;4916025;29;20075;-78
2022/04/19 14:46:44;;;;;;;5.68;2.35;;;;;;;12.58;52.85;100032.72;4932673;29;20066;-78
2022/04/19 14:49:12;;;;;;;3.33;2.63;;;;;;;12.31;53.06;99978.66;4924051;29;20078;-78
2022/04/19 14:52:22;;;;;;;4.18;2.38;;;;;;;12.62;53.01;100013.50;4935138;29;20059;-79
2022/04/19 14:54:31;;;;;;;4.78;2.78;;;;;;;12.58;53.17;100014.38;4928878;29;20055;-80
2022/04/19 14:56:58;;;;;;;5.38;2.42;;;;;;;12.07;52.78;99951.63;4935334;29;20135;-80
2022/04/19 14:59:25;;;;;;;2.58;2.35;;;;;;;12.45;53.00;100010.94;4943789;29;20062;-81
2022/04/19 15:01:52;;;;;;;2.78;2.22;;;;;;;12.55;53.35;100037.13;4924709;29;20066;-82
2022/04/19 15:04:20;;;;;;;3.20;2.35;;;;;;;12.53;53.09;100029.25;4923573;29;20099;-80
2022/04/19 15:06:47;;;;;;;2.55;2.33;;;;;;;12.35;53.25;99998.72;4923125;29;20048;-81
2022/04/19 15:09:23;;;;;;;5.00;2.40;;;;;;;12.49;53.09;100025.75;4929656;29;20517;-78
2022/04/19 15:11:58;;;;;;;3.90;2.83;;;;;;;12.31;53.27;100011.84;4934331;29;20279;-80
2022/04/19 15:14:38;;;;;;;3.15;2.20;;;;;;;12.31;53.61;100012.69;4933553;29;20063;-79
2022/04/19 15:17:17;;;;;;;4.35;2.70;;;;;;;12.28;53.77;100008.34;4934875;29;20059;-78
2022/04/19 15:19:58;;;;;;;3.75;2.25;;;;;;;12.32;53.75;100031.91;4930885;29;20103;-79
2022/04/19 15:22:30;;;;;;;4.03;2.28;;;;;;;12.26;53.90;100024.91;4925251;29;20052;-81
2022/04/19 15:25:05;;;;;;;2.38;2.15;;;;;;;12.04;53.59;100005.72;4924225;29;20048;-80
2022/04/19 15:27:48;;;;;;;3.17;2.30;;;;;;;12.11;53.89;100007.50;4922756;29;20056;-78
2022/04/19 15:30:15;;;;;;;2.30;2.10;;;;;;;12.21;53.88;100030.16;4929058;29;20054;-80
2022/04/19 15:32:43;;;;;;;4.97;2.53;;;;;;;12.18;53.94;100017.09;4923764;29;20115;-81
2022/04/19 15:35:10;;;;;;;6.00;2.90;;;;;;;12.24;54.07;100045.03;4922988;29;20048;-80
2022/04/19 15:37:37;;;;;;;7.40;3.47;;;;;;;12.23;54.45;100048.50;4929852;29;20130;-79
2022/04/19 15:40:05;;;;;;;5.53;2.42;;;;;;;11.96;54.35;99992.66;4930746;29;20115;-80
2022/04/19 15:42:33;;;;;;;6.03;2.83;;;;;;;12.07;54.51;100032.78;4926082;29;20052;-80
2022/04/19 15:45:10;;;;;;;3.92;2.75;;;;;;;11.88;54.63;99992.66;4930609;29;20494;-80
2022/04/19 15:47:39;;;;;;;4.60;2.67;;;;;;;12.03;54.62;100032.81;4926559;29;20052;-82
2022/04/19 15:50:07;;;;;;;5.05;2.40;;;;;;;11.98;54.73;100030.19;4927984;29;20054;-80
2022/04/19 15:52:34;;;;;;;7.53;2.20;;;;;;;11.90;54.73;100023.19;4929419;29;20051;-80
2022/04/19 15:55:01;;;;;;;2.88;2.10;;;;;;;11.88;54.91;100026.69;4928054;29;20413;-79
2022/04/19 15:57:29;;;;;;;3.97;2.10;;;;;;;11.84;54.90;100029.25;4932879;29;20505;-81
2022/04/19 15:59:56;;;;;;;4.20;2.70;;;;;;;11.76;55.36;100031.84;4935758;29;20060;-82
2022/04/19 16:02:23;;;;;;;3.25;2.00;;;;;;;11.58;55.24;100009.16;4927038;29;20584;-83
2022/04/19 16:04:51;;;;;;;4.18;2.60;;;;;;;11.57;55.37;100007.44;4926833;29;20079;-78
2022/04/19 16:07:18;;;;;;;2.78;2.30;;;;;;;11.69;55.38;100061.50;4915601;29;20052;-79
2022/04/19 16:09:45;;;;;;;4.22;2.35;;;;;;;11.46;55.52;100010.03;4939021;29;20552;-80
2022/04/19 16:12:12;;;;;;;3.97;2.28;;;;;;;11.55;55.76;100023.97;4949402;29;20528;-79
2022/04/19 16:14:39;;;;;;;4.63;2.20;;;;;;;11.18;55.68;99975.06;4919870;29;20060;-80
2022/04/19 16:25:25;;;;;;;7.82;2.85;;;;;;;11.01;56.70;99988.09;4920006;29;20059;-79
2022/04/19 16:27:52;;;;;;;6.35;2.80;;;;;;;11.18;56.58;100031.72;4920080;29;20079;-81
2022/04/19 16:30:19;;;;;;;4.38;2.70;;;;;;;11.13;56.92;100029.09;4916001;29;20150;-82
2022/04/19 16:32:47;;;;;;;2.75;2.15;;;;;;;10.72;56.90;99974.91;4938835;29;20062;-82
2022/04/19 16:35:14;;;;;;;3.80;2.50;;;;;;;11.04;57.06;100043.00;4939135;29;20063;-83
2022/04/19 16:37:42;;;;;;;3.80;2.70;;;;;;;11.02;57.43;100049.09;4939635;29;20580;-79
2022/04/19 16:40:09;;;;;;;6.88;2.83;;;;;;;10.98;57.43;100032.50;4938573;29;20059;-81
2022/04/19 16:42:42;;;;;;;6.20;3.17;;;;;;;10.93;57.33;100047.31;4938770;29;20085;-81
2022/04/19 16:45:11;;;;;;;5.10;2.70;;;;;;;10.90;58.25;100054.25;4935421;29;20051;-79
2022/04/19 16:47:38;;;;;;;5.35;3.20;;;;;;;10.79;57.80;100048.97;4924355;29;20485;-79
2022/04/19 16:50:05;;;;;;;5.95;3.28;;;;;;;10.73;58.24;100034.13;4917594;29;20564;-79
2022/04/19 16:52:32;;;;;;;8.07;3.45;;;;;;;10.66;58.46;100029.75;4917595;29;20059;-81
2022/04/19 16:54:59;;;;;;;5.25;2.95;;;;;;;10.52;57.98;100021.84;4918739;29;20062;-78
2022/04/19 16:57:29;;;;;;;4.32;2.60;;;;;;;10.34;58.54;99991.25;4918442;29;20427;-81
2022/04/19 16:59:56;;;;;;;5.40;3.03;;;;;;;10.62;58.43;100047.13;4918981;29;20071;-81
2022/04/19 17:02:23;;;;;;;8.63;3.42;;;;;;;10.57;59.01;100048.84;4917741;29;20052;-79
2022/04/19 17:04:51;;;;;;;6.00;3.45;;;;;;;10.49;58.88;100040.09;4916498;29;20056;-82
2022/04/19 17:07:18;;;;;;;6.45;3.08;;;;;;;10.31;58.77;100021.69;4931349;29;20174;-80